KGLS/GLS METAR and TAF weather

Enter ICAO airport designator
Station Type Date Time Source
KGLS METAR 2022/01/29 01:52 UTC NOAA

KGLS 290152Z AUTO 35009KT 10SM CLR 12/02 A3044 RMK AO2 SLP306 T01220017


Station Type Date Time Source
KGLS Decoded METAR 2022/01/29 01:52 UTC NOAA

SCHOLES FIELD, TX, United States (KGLS) 29-16N 094-52W 6M
Jan 28, 2022 - 08:52 PM EST / 2022.01.29 0152 UTC
Wind: from the N (350 degrees) at 10 MPH (9 KT):0
Visibility: 10 mile(s):0
Sky conditions: clear
Temperature: 54.0 F (12.2 C)
Dew Point: 35.1 F (1.7 C)
Relative Humidity: 48%
Pressure (altimeter): 30.44 in. Hg (1030 hPa)
ob: KGLS 290152Z AUTO 35009KT 10SM CLR 12/02 A3044 RMK AO2 SLP306 T01220017
cycle: 2

Station Type Date Time Source
KGLS TAF 2022/01/28 18:27 UTC NOAA

TAF KGLS 281721Z 2818/2918 35016G24KT P6SM SCT120
FM282300 36015KT P6SM SKC
FM290200 35010KT P6SM SKC
FM290600 35006KT P6SM SKC
FM291500 26005KT P6SM SKC

Example: see airport list